createdAt,value
2023-04-03T00:01:47.203Z,102433.84
2023-04-03T00:04:13.649Z,102436.81
2023-04-03T00:06:39.958Z,102432.41
2023-04-03T00:09:07.293Z,102437.03
2023-04-03T00:11:34.991Z,102431.78
2023-04-03T00:14:01.380Z,102440.09
2023-04-03T00:16:27.798Z,102437.47
2023-04-03T00:18:54.148Z,102442.16
2023-04-03T00:21:20.467Z,102439.44
2023-04-03T00:23:46.800Z,102438.56
2023-04-03T00:26:13.199Z,102439.63
2023-04-03T00:28:39.513Z,102445.00
2023-04-03T00:31:05.865Z,102439.31
2023-04-03T00:33:32.200Z,102441.50
2023-04-03T00:35:58.660Z,102443.38
2023-04-03T00:38:25.025Z,102439.66
2023-04-03T00:40:51.554Z,102440.53
2023-04-03T00:43:20.763Z,102445.47
2023-04-03T00:45:49.814Z,102443.69
2023-04-03T00:48:23.442Z,102440.72
2023-04-03T00:50:50.580Z,102444.00
2023-04-03T00:53:23.076Z,102451.78
2023-04-03T00:55:51.775Z,102443.34
2023-04-03T00:58:21.593Z,102443.13
2023-04-03T01:00:54.703Z,102443.78
2023-04-03T01:03:21.045Z,102446.09
2023-04-03T01:05:47.390Z,102447.72
2023-04-03T01:08:13.701Z,102448.03
2023-04-03T01:10:40.052Z,102449.03
2023-04-03T01:13:23.588Z,102442.88
2023-04-03T01:15:49.971Z,102447.69
2023-04-03T01:18:16.300Z,102443.22
2023-04-03T01:21:16.769Z,102442.66
2023-04-03T01:23:49.429Z,102443.84
2023-04-03T01:26:16.359Z,102446.91
2023-04-03T01:28:42.671Z,102444.25
2023-04-03T01:31:25.960Z,102445.91
2023-04-03T01:33:52.879Z,102441.75
2023-04-03T01:36:23.849Z,102444.50
2023-04-03T01:38:50.160Z,102448.53
2023-04-03T01:41:16.825Z,102459.81
2023-04-03T01:43:43.414Z,102448.75
2023-04-03T01:46:09.891Z,102453.88
2023-04-03T01:48:36.650Z,102461.19
2023-04-03T01:51:03.188Z,102461.69
2023-04-03T01:53:30.344Z,102466.47
2023-04-03T01:55:56.676Z,102467.22
2023-04-03T01:58:22.991Z,102460.44
2023-04-03T02:00:49.497Z,102458.81
2023-04-03T02:03:15.861Z,102466.88
2023-04-03T02:05:42.192Z,102465.34
2023-04-03T02:08:08.520Z,102462.50
2023-04-03T02:10:35.191Z,102467.75
2023-04-03T02:13:01.725Z,102465.78
2023-04-03T02:15:28.069Z,102465.44
2023-04-03T02:17:54.417Z,102474.63
2023-04-03T02:20:21.642Z,102469.06
2023-04-03T02:22:48.142Z,102467.44
2023-04-03T02:25:14.599Z,102476.50
2023-04-03T02:27:41.124Z,102476.72
2023-04-03T02:30:08.249Z,102480.88
2023-04-03T02:32:34.554Z,102483.53
2023-04-03T02:35:01.887Z,102484.16
2023-04-03T02:37:28.219Z,102482.41
2023-04-03T02:39:54.518Z,102483.53
2023-04-03T02:42:20.821Z,102491.84
2023-04-03T02:44:47.110Z,102489.63
2023-04-03T02:47:13.419Z,102490.28
2023-04-03T02:49:39.719Z,102491.47
2023-04-03T02:52:06.023Z,102500.78
2023-04-03T02:54:32.317Z,102500.53
2023-04-03T02:56:58.951Z,102504.06
2023-04-03T02:59:25.827Z,102500.66
2023-04-03T03:01:52.196Z,102499.25
2023-04-03T03:04:18.729Z,102505.81
2023-04-03T03:06:45.140Z,102507.88
2023-04-03T03:09:11.635Z,102511.34
2023-04-03T03:11:37.959Z,102509.03
2023-04-03T03:14:04.282Z,102510.78
2023-04-03T03:16:30.888Z,102510.47
2023-04-03T03:18:57.985Z,102510.78
2023-04-03T03:21:25.352Z,102511.66
2023-04-03T03:23:51.656Z,102510.38
2023-04-03T03:26:17.970Z,102513.59
2023-04-03T03:28:44.266Z,102521.03
2023-04-03T03:31:10.814Z,102520.78
2023-04-03T03:33:37.289Z,102524.06
2023-04-03T03:36:04.004Z,102524.06
2023-04-03T03:38:30.529Z,102533.47
2023-04-03T03:40:56.846Z,102520.78
2023-04-03T03:43:23.201Z,102526.09
2023-04-03T03:45:53.814Z,102528.63
2023-04-03T03:48:21.395Z,102519.44
2023-04-03T03:50:48.744Z,102525.84
2023-04-03T03:53:15.254Z,102523.63
2023-04-03T03:55:42.065Z,102534.44
2023-04-03T03:58:09.014Z,102527.16
2023-04-03T04:00:35.392Z,102522.38
2023-04-03T04:03:01.827Z,102526.91
2023-04-03T04:05:28.307Z,102523.94
2023-04-03T04:07:54.643Z,102525.66
2023-04-03T04:10:20.985Z,102521.75
2023-04-03T04:12:47.314Z,102526.19
2023-04-03T04:15:13.708Z,102520.16
2023-04-03T04:17:40.116Z,102529.09
2023-04-03T04:20:06.976Z,102539.56
2023-04-03T04:22:33.498Z,102529.97
2023-04-03T04:24:59.839Z,102534.38
2023-04-03T04:27:26.161Z,102534.53
2023-04-03T04:29:52.458Z,102538.69
2023-04-03T04:32:18.728Z,102527.13
2023-04-03T04:34:45.034Z,102539.81
2023-04-03T04:37:11.390Z,102531.72
2023-04-03T04:39:37.670Z,102537.28
2023-04-03T04:42:04.021Z,102531.13
2023-04-03T04:44:30.323Z,102535.28
2023-04-03T04:46:56.654Z,102535.78
2023-04-03T04:49:22.966Z,102536.78
2023-04-03T04:51:52.272Z,102543.59
2023-04-03T04:54:21.572Z,102551.25
2023-04-03T04:56:47.974Z,102551.13
2023-04-03T04:59:14.297Z,102552.88
2023-04-03T05:01:40.602Z,102558.66
2023-04-03T05:04:06.933Z,102559.91
2023-04-03T05:06:33.300Z,102559.38
2023-04-03T05:09:00.236Z,102557.38
2023-04-03T05:11:26.732Z,102560.38
2023-04-03T05:13:53.183Z,102566.38
2023-04-03T05:16:19.544Z,102565.97
2023-04-03T05:18:45.914Z,102561.59
2023-04-03T05:21:12.257Z,102556.16
2023-04-03T05:23:38.602Z,102558.91
2023-04-03T05:26:05.027Z,102554.22
2023-04-03T05:28:31.341Z,102555.94
2023-04-03T05:30:59.138Z,102566.63
2023-04-03T05:33:26.446Z,102565.94
2023-04-03T05:35:53.826Z,102571.09
2023-04-03T05:38:20.294Z,102571.69
2023-04-03T05:40:46.774Z,102571.28
2023-04-03T05:43:13.182Z,102569.59
2023-04-03T05:45:39.512Z,102575.06
2023-04-03T05:48:05.944Z,102582.34
2023-04-03T05:50:32.271Z,102580.28
2023-04-03T05:52:59.792Z,102583.28
2023-04-03T05:55:26.132Z,102586.25
2023-04-03T05:57:52.426Z,102590.22
2023-04-03T06:00:19.275Z,102593.19
2023-04-03T06:02:45.691Z,102590.38
2023-04-03T06:05:12.065Z,102588.63
2023-04-03T06:07:38.434Z,102590.84
2023-04-03T06:10:05.571Z,102590.63
2023-04-03T06:12:31.912Z,102592.31
2023-04-03T06:14:58.377Z,102592.75
2023-04-03T06:17:24.790Z,102596.56
2023-04-03T06:19:51.211Z,102591.75
2023-04-03T06:22:17.586Z,102594.06
2023-04-03T06:24:43.919Z,102601.97
2023-04-03T06:27:12.132Z,102595.72
2023-04-03T06:29:38.453Z,102601.97
2023-04-03T06:32:05.001Z,102594.94
2023-04-03T06:34:31.294Z,102602.06
2023-04-03T06:36:57.622Z,102605.28
2023-04-03T06:39:24.007Z,102599.66
2023-04-03T06:41:51.253Z,102609.84
2023-04-03T06:44:19.266Z,102603.03
2023-04-03T06:46:45.905Z,102607.31
2023-04-03T06:49:12.251Z,102610.47
2023-04-03T06:51:38.607Z,102608.16
2023-04-03T06:54:06.337Z,102616.38
2023-04-03T06:56:33.372Z,102618.75
2023-04-03T06:58:59.678Z,102625.75
2023-04-03T07:01:27.783Z,102621.00
2023-04-03T07:03:54.844Z,102625.50
2023-04-03T07:06:21.984Z,102627.34
2023-04-03T07:08:48.624Z,102633.09
2023-04-03T07:11:14.993Z,102633.25
2023-04-03T07:13:41.756Z,102638.59
2023-04-03T07:16:09.640Z,102646.84
2023-04-03T07:18:36.479Z,102646.69
2023-04-03T07:21:03.816Z,102644.38
2023-04-03T07:23:30.554Z,102641.28
2023-04-03T07:25:56.989Z,102652.00
2023-04-03T07:28:24.280Z,102649.81
2023-04-03T07:30:59.909Z,102655.81
2023-04-03T07:33:26.904Z,102650.03
2023-04-03T07:35:53.700Z,102647.41
2023-04-03T07:38:19.994Z,102656.81
2023-04-03T07:40:48.645Z,102655.84
2023-04-03T07:43:15.943Z,102657.63
2023-04-03T07:45:42.979Z,102657.78
2023-04-03T07:48:09.945Z,102654.09
2023-04-03T07:50:36.235Z,102654.38
2023-04-03T07:53:03.117Z,102672.03
2023-04-03T07:55:29.537Z,102657.53
2023-04-03T07:57:55.843Z,102653.50
2023-04-03T08:00:22.213Z,102661.25
2023-04-03T08:02:48.598Z,102664.38
2023-04-03T08:05:14.971Z,102666.88
2023-04-03T08:07:41.294Z,102665.13
2023-04-03T08:10:07.915Z,102662.78
2023-04-03T08:12:34.251Z,102667.06
2023-04-03T08:15:01.201Z,102667.06
2023-04-03T08:17:28.046Z,102661.63
2023-04-03T08:19:54.356Z,102666.25
2023-04-03T08:22:20.669Z,102661.88
2023-04-03T08:24:58.557Z,102662.75
2023-04-03T08:27:25.772Z,102676.34
2023-04-03T08:29:52.068Z,102667.31
2023-04-03T08:32:18.641Z,102669.56
2023-04-03T08:34:44.994Z,102672.28
2023-04-03T08:37:11.352Z,102666.84
2023-04-03T08:39:37.725Z,102667.50
2023-04-03T08:42:16.131Z,102658.16
2023-04-03T08:45:27.430Z,102646.66
2023-04-03T08:48:01.079Z,102648.50
2023-04-03T08:50:35.932Z,102646.22
2023-04-03T08:53:03.678Z,102645.47
2023-04-03T08:55:32.708Z,102645.81
2023-04-03T08:58:03.379Z,102644.75
2023-04-03T09:00:38.497Z,102645.75
2023-04-03T09:03:04.859Z,102638.59
2023-04-03T09:05:41.272Z,102635.84
2023-04-03T09:08:28.028Z,102633.75
2023-04-03T09:11:06.685Z,102637.94
2023-04-03T09:13:32.929Z,102638.28
2023-04-03T09:16:03.187Z,102626.75
2023-04-03T09:18:40.931Z,102626.91
2023-04-03T09:21:25.585Z,102636.78
2023-04-03T09:23:58.874Z,102635.16
2023-04-03T09:26:51.337Z,102645.31
2023-04-03T09:29:24.404Z,102639.16
2023-04-03T09:31:56.970Z,102643.56
2023-04-03T09:34:31.038Z,102640.75
2023-04-03T09:37:00.355Z,102639.34
2023-04-03T09:39:29.522Z,102630.94
2023-04-03T09:42:44.051Z,102640.81
2023-04-03T09:45:25.777Z,102641.97
2023-04-03T09:48:08.337Z,102649.50
2023-04-03T09:50:36.956Z,102638.13
2023-04-03T09:53:08.467Z,102642.75
2023-04-03T09:55:44.259Z,102647.91
2023-04-03T09:58:36.102Z,102639.34
2023-04-03T10:01:42.462Z,102637.06
2023-04-03T10:04:18.204Z,102640.19
2023-04-03T10:06:49.906Z,102636.69
2023-04-03T10:09:31.016Z,102631.63
2023-04-03T10:12:12.883Z,102622.97
2023-04-03T10:14:41.268Z,102621.28
2023-04-03T10:17:17.059Z,102622.88
2023-04-03T10:19:55.003Z,102618.63
2023-04-03T10:22:39.408Z,102614.28
2023-04-03T10:25:22.798Z,102625.16
2023-04-03T10:28:31.960Z,102627.69
2023-04-03T10:31:09.645Z,102612.75
2023-04-03T10:33:48.132Z,102619.72
2023-04-03T10:36:51.671Z,102613.25
2023-04-03T10:39:27.578Z,102602.53
2023-04-03T10:42:19.952Z,102606.06
2023-04-03T10:45:00.830Z,102607.19
2023-04-03T10:48:08.830Z,102607.25
2023-04-03T10:50:48.140Z,102599.09
2023-04-03T10:53:42.138Z,102601.63
2023-04-03T10:56:08.391Z,102605.31
2023-04-03T10:58:42.682Z,102603.41
2023-04-03T11:01:22.896Z,102600.66
2023-04-03T11:03:57.790Z,102595.50
2023-04-03T11:06:29.032Z,102604.97
2023-04-03T11:09:02.080Z,102607.41
2023-04-03T11:11:33.041Z,102597.78
2023-04-03T11:14:10.566Z,102594.19
2023-04-03T11:16:51.075Z,102602.94
2023-04-03T11:19:24.097Z,102594.53
2023-04-03T11:21:57.786Z,102591.56
2023-04-03T11:24:26.634Z,102591.56
2023-04-03T11:26:55.039Z,102589.75
2023-04-03T11:29:35.117Z,102586.59
2023-04-03T11:32:24.273Z,102578.44
2023-04-03T11:34:55.216Z,102584.34
2023-04-03T11:37:31.981Z,102577.78
2023-04-03T11:40:02.590Z,102569.44
2023-04-03T11:42:39.216Z,102574.59
2023-04-03T11:45:23.800Z,102574.63
2023-04-03T11:47:53.779Z,102571.69
2023-04-03T11:50:44.229Z,102569.53
2023-04-03T11:53:13.270Z,102577.50
2023-04-03T11:55:50.264Z,102578.53
2023-04-03T11:58:21.658Z,102575.09
2023-04-03T12:01:01.732Z,102572.63
2023-04-03T12:03:32.042Z,102574.19
2023-04-03T12:06:18.379Z,102569.72
2023-04-03T12:08:47.961Z,102559.47
2023-04-03T12:11:14.469Z,102564.53
2023-04-03T12:13:49.972Z,102563.06
2023-04-03T12:16:21.766Z,102553.75
2023-04-03T12:18:53.841Z,102559.88
2023-04-03T12:21:23.082Z,102563.75
2023-04-03T12:24:23.638Z,102559.69
2023-04-03T12:27:03.342Z,102557.13
2023-04-03T12:29:32.708Z,102562.84
2023-04-03T12:32:17.696Z,102552.00
2023-04-03T12:34:46.959Z,102559.63
2023-04-03T12:37:31.519Z,102553.66
2023-04-03T12:40:10.056Z,102556.50
2023-04-03T12:42:42.435Z,102553.53
2023-04-03T12:45:23.459Z,102556.44
2023-04-03T12:47:52.438Z,102556.38
2023-04-03T12:50:24.927Z,102553.53
2023-04-03T12:52:58.370Z,102543.00
2023-04-03T12:55:24.721Z,102544.28
2023-04-03T12:57:51.060Z,102544.03
2023-04-03T13:00:36.045Z,102541.44
2023-04-03T13:03:04.390Z,102537.72
2023-04-03T13:05:33.020Z,102533.97
2023-04-03T13:08:03.924Z,102532.69
2023-04-03T13:10:30.655Z,102530.38
2023-04-03T13:12:59.435Z,102527.28
2023-04-03T13:15:28.842Z,102535.06
2023-04-03T13:17:55.280Z,102534.81
2023-04-03T13:20:28.508Z,102529.34
2023-04-03T13:23:04.513Z,102525.38
2023-04-03T13:25:33.754Z,102528.59
2023-04-03T13:28:13.344Z,102532.72
2023-04-03T13:30:42.359Z,102527.91
2023-04-03T13:33:27.714Z,102530.34
2023-04-03T13:36:19.391Z,102532.09
2023-04-03T13:38:45.864Z,102525.06
2023-04-03T13:41:26.876Z,102527.28
2023-04-03T13:43:57.559Z,102515.78
2023-04-03T13:46:28.633Z,102526.03
2023-04-03T13:48:57.208Z,102513.66
2023-04-03T13:51:29.432Z,102515.25
2023-04-03T13:54:00.570Z,102514.94
2023-04-03T13:56:31.390Z,102510.94
2023-04-03T13:59:12.765Z,102512.53
2023-04-03T14:01:41.918Z,102510.44
2023-04-03T14:04:22.322Z,102503.56
2023-04-03T14:06:49.335Z,102514.09
2023-04-03T14:09:18.020Z,102516.50
2023-04-03T14:11:44.746Z,102511.88
2023-04-03T14:14:18.151Z,102504.38
2023-04-03T14:16:47.828Z,102504.31
2023-04-03T14:19:26.646Z,102500.41
2023-04-03T14:21:55.088Z,102500.31
2023-04-03T14:24:21.546Z,102502.69
2023-04-03T14:26:49.432Z,102501.88
2023-04-03T14:29:15.946Z,102508.25
2023-04-03T14:31:44.815Z,102501.09
2023-04-03T14:34:12.638Z,102499.66
2023-04-03T14:36:40.307Z,102497.56
2023-04-03T14:39:08.094Z,102497.47
2023-04-03T14:41:34.427Z,102500.75
2023-04-03T14:44:00.757Z,102491.81
2023-04-03T14:46:48.404Z,102497.06
2023-04-03T14:49:22.077Z,102503.88
2023-04-03T14:51:48.752Z,102512.09
2023-04-03T14:54:18.150Z,102500.00
2023-04-03T14:56:44.551Z,102501.75
2023-04-03T14:59:13.928Z,102503.00
2023-04-03T15:01:40.303Z,102499.00
2023-04-03T15:04:13.955Z,102490.78
2023-04-03T15:06:40.974Z,102501.31
2023-04-03T15:09:25.115Z,102499.78
2023-04-03T15:11:52.976Z,102500.75
2023-04-03T15:14:29.932Z,102496.75
2023-04-03T15:17:04.920Z,102501.56
2023-04-03T15:19:39.529Z,102493.94
2023-04-03T15:22:06.298Z,102486.41
2023-04-03T15:24:32.640Z,102492.72
2023-04-03T15:27:00.848Z,102482.72
2023-04-03T15:29:28.004Z,102492.00
2023-04-03T15:31:54.598Z,102479.41
2023-04-03T15:34:21.105Z,102487.81
2023-04-03T15:36:47.877Z,102488.88
2023-04-03T15:39:14.168Z,102486.59
2023-04-03T15:41:40.492Z,102489.09
2023-04-03T15:44:06.815Z,102479.09
2023-04-03T15:46:33.546Z,102480.13
2023-04-03T15:48:59.944Z,102480.38
2023-04-03T15:51:26.262Z,102477.66
2023-04-03T15:53:52.538Z,102483.31
2023-04-03T15:56:18.846Z,102473.72
2023-04-03T15:58:45.145Z,102479.84
2023-04-03T16:01:12.020Z,102478.78
2023-04-03T16:03:40.573Z,102473.13
2023-04-03T16:06:07.004Z,102477.41
2023-04-03T16:08:33.326Z,102481.31
2023-04-03T16:10:59.674Z,102478.09
2023-04-03T16:13:26.015Z,102474.91
2023-04-03T16:15:52.357Z,102475.88
2023-04-03T16:18:18.729Z,102477.66
2023-04-03T16:20:45.167Z,102482.31
2023-04-03T16:23:12.590Z,102479.69
2023-04-03T16:25:38.963Z,102483.78
2023-04-03T16:28:05.676Z,102488.00
2023-04-03T16:30:32.072Z,102489.84
2023-04-03T16:32:58.517Z,102491.34
2023-04-03T16:35:25.009Z,102493.28
2023-04-03T16:37:51.284Z,102496.16
2023-04-03T16:40:17.659Z,102495.88
2023-04-03T16:42:43.935Z,102500.00
2023-04-03T16:45:11.596Z,102493.28
2023-04-03T16:47:38.254Z,102493.09
2023-04-03T16:50:05.402Z,102487.13
2023-04-03T16:52:31.808Z,102490.41
2023-04-03T16:54:58.118Z,102492.75
2023-04-03T16:57:24.448Z,102496.06
2023-04-03T16:59:50.828Z,102486.03
2023-04-03T17:02:17.145Z,102488.28
2023-04-03T17:04:43.593Z,102485.66
2023-04-03T17:07:09.920Z,102487.50
2023-04-03T17:09:36.217Z,102484.00
2023-04-03T17:12:02.608Z,102487.16
2023-04-03T17:14:29.029Z,102485.59
2023-04-03T17:16:55.420Z,102483.84
2023-04-03T17:19:28.839Z,102480.34
2023-04-03T17:21:55.366Z,102484.44
2023-04-03T17:24:21.682Z,102487.41
2023-04-03T17:26:48.028Z,102484.59
2023-04-03T17:29:14.470Z,102485.75
2023-04-03T17:31:40.871Z,102491.31
2023-04-03T17:34:07.525Z,102487.38
2023-04-03T17:36:34.371Z,102486.06
2023-04-03T17:39:00.848Z,102493.50
2023-04-03T17:41:27.194Z,102493.31
2023-04-03T17:43:53.549Z,102498.81
2023-04-03T17:46:19.981Z,102496.00
2023-04-03T17:48:46.305Z,102489.09
2023-04-03T17:51:15.774Z,102502.63
2023-04-03T17:53:42.965Z,102490.84
2023-04-03T17:56:12.892Z,102498.97
2023-04-03T17:58:39.247Z,102496.03
2023-04-03T18:01:12.803Z,102504.34
2023-04-03T18:03:39.246Z,102507.84
2023-04-03T18:06:10.017Z,102499.97
2023-04-03T18:08:43.694Z,102508.00
2023-04-03T18:11:10.590Z,102505.47
2023-04-03T18:13:37.118Z,102502.06
2023-04-03T18:16:07.070Z,102510.25
2023-04-03T18:18:33.428Z,102504.63
2023-04-03T18:20:59.869Z,102505.28
2023-04-03T18:23:28.615Z,102518.06
2023-04-03T18:25:55.315Z,102519.41
2023-04-03T18:28:21.674Z,102518.38
2023-04-03T18:30:48.706Z,102513.56
2023-04-03T18:33:14.998Z,102512.59
2023-04-03T18:35:41.625Z,102525.19
2023-04-03T18:38:08.032Z,102520.81
2023-04-03T18:40:34.792Z,102512.03
2023-04-03T18:43:02.093Z,102518.47
2023-04-03T18:45:28.980Z,102520.34
2023-04-03T18:47:56.455Z,102515.84
2023-04-03T18:50:22.822Z,102524.22
2023-04-03T18:52:49.110Z,102516.53
2023-04-03T18:55:15.566Z,102507.00
2023-04-03T18:57:41.884Z,102510.88
2023-04-03T19:00:08.628Z,102511.09
2023-04-03T19:02:35.085Z,102511.78
2023-04-03T19:05:01.553Z,102513.31
2023-04-03T19:07:28.351Z,102511.47
2023-04-03T19:09:55.254Z,102510.13
2023-04-03T19:12:21.624Z,102509.03
2023-04-03T19:14:47.948Z,102515.59
2023-04-03T19:17:14.244Z,102508.94
2023-04-03T19:19:40.593Z,102514.09
2023-04-03T19:22:06.895Z,102505.63
2023-04-03T19:24:33.657Z,102508.00
2023-04-03T19:26:59.987Z,102513.94
2023-04-03T19:29:26.277Z,102504.69
2023-04-03T19:31:52.598Z,102501.09
2023-04-03T19:34:18.964Z,102502.34
2023-04-03T19:36:45.267Z,102507.41
2023-04-03T19:39:13.974Z,102499.63
2023-04-03T19:41:42.074Z,102510.53
2023-04-03T19:44:08.625Z,102499.91
2023-04-03T19:46:35.876Z,102502.06
2023-04-03T19:49:02.622Z,102503.63
2023-04-03T19:51:28.942Z,102494.00
2023-04-03T19:53:55.222Z,102512.94
2023-04-03T19:56:21.588Z,102507.09
2023-04-03T19:58:47.985Z,102510.13
2023-04-03T20:01:14.307Z,102509.34
2023-04-03T20:03:40.600Z,102512.28
2023-04-03T20:06:06.954Z,102514.59
2023-04-03T20:08:33.309Z,102508.44
2023-04-03T20:10:59.698Z,102518.66
2023-04-03T20:13:26.089Z,102522.63
2023-04-03T20:15:52.458Z,102512.53
2023-04-03T20:18:20.475Z,102516.53
2023-04-03T20:20:54.477Z,102512.41
2023-04-03T20:23:21.074Z,102513.47
2023-04-03T20:26:01.503Z,102505.81
2023-04-03T20:28:35.212Z,102514.25
2023-04-03T20:31:01.564Z,102504.34
2023-04-03T20:33:28.360Z,102511.03
2023-04-03T20:35:58.257Z,102510.16
2023-04-03T20:38:25.003Z,102511.53
2023-04-03T20:40:51.325Z,102510.94
2023-04-03T20:43:17.644Z,102506.88
2023-04-03T20:45:43.970Z,102517.47
2023-04-03T20:48:10.797Z,102506.16
2023-04-03T20:50:37.187Z,102502.19
2023-04-03T20:53:03.506Z,102505.41
2023-04-03T20:55:29.927Z,102506.94
2023-04-03T20:57:56.303Z,102505.47
2023-04-03T21:00:22.754Z,102506.13
2023-04-03T21:02:49.071Z,102509.75
2023-04-03T21:05:16.238Z,102509.44
2023-04-03T21:08:19.905Z,102509.03
2023-04-03T21:11:23.740Z,102511.94
2023-04-03T21:14:27.557Z,102504.50
2023-04-03T21:16:53.778Z,102510.66
2023-04-03T21:19:20.551Z,102504.22
2023-04-03T21:21:47.197Z,102493.63
2023-04-03T21:24:16.615Z,102495.16
2023-04-03T21:26:43.568Z,102497.56
2023-04-03T21:29:10.663Z,102497.28
2023-04-03T21:32:06.403Z,102500.06
2023-04-03T21:34:32.736Z,102501.38
2023-04-03T21:37:07.012Z,102506.44
2023-04-03T21:39:33.396Z,102506.06
2023-04-03T21:42:00.197Z,102495.06
2023-04-03T21:44:26.723Z,102503.16
2023-04-03T21:46:53.047Z,102501.88
2023-04-03T21:49:20.242Z,102499.66
2023-04-03T21:51:46.727Z,102502.19
2023-04-03T21:54:13.063Z,102496.19
2023-04-03T21:56:39.332Z,102499.13
2023-04-03T21:59:05.751Z,102501.78
2023-04-03T22:01:32.168Z,102498.25
2023-04-03T22:03:59.377Z,102508.03
2023-04-03T22:06:26.235Z,102496.41
2023-04-03T22:08:52.821Z,102501.75
2023-04-03T22:11:19.101Z,102497.94
2023-04-03T22:13:45.405Z,102499.69
2023-04-03T22:16:12.377Z,102495.06
2023-04-03T22:18:39.160Z,102495.06
2023-04-03T22:21:06.007Z,102502.97
2023-04-03T22:23:32.310Z,102493.22
2023-04-03T22:26:07.794Z,102497.03
2023-04-03T22:28:37.013Z,102500.09
2023-04-03T22:31:04.637Z,102494.84
2023-04-03T22:33:30.953Z,102497.03
2023-04-03T22:35:57.275Z,102494.50
2023-04-03T22:38:23.596Z,102492.63
2023-04-03T22:41:00.199Z,102496.78
2023-04-03T22:43:27.942Z,102500.84
2023-04-03T22:45:55.251Z,102491.84
2023-04-03T22:48:22.188Z,102492.72
2023-04-03T22:50:48.504Z,102492.41
2023-04-03T22:53:15.782Z,102502.47
2023-04-03T22:55:42.076Z,102494.16
2023-04-03T22:58:08.651Z,102493.69
2023-04-03T23:00:35.016Z,102500.25
2023-04-03T23:03:01.756Z,102499.69
2023-04-03T23:05:28.817Z,102495.53
2023-04-03T23:07:55.132Z,102495.72
2023-04-03T23:10:21.785Z,102496.34
2023-04-03T23:12:48.163Z,102489.13
2023-04-03T23:15:14.469Z,102495.69
2023-04-03T23:17:40.819Z,102503.97
2023-04-03T23:20:07.610Z,102494.28
2023-04-03T23:22:33.891Z,102492.47
2023-04-03T23:25:00.196Z,102497.06
2023-04-03T23:27:26.492Z,102505.81
2023-04-03T23:29:52.775Z,102496.94
2023-04-03T23:32:19.106Z,102498.78
2023-04-03T23:34:45.421Z,102497.06
2023-04-03T23:37:12.322Z,102500.72
2023-04-03T23:39:38.654Z,102491.66
2023-04-03T23:42:05.017Z,102497.88
2023-04-03T23:44:31.299Z,102499.72
2023-04-03T23:46:57.586Z,102500.72
2023-04-03T23:49:23.884Z,102495.81
2023-04-03T23:51:50.248Z,102495.44
2023-04-03T23:54:16.568Z,102490.19
2023-04-03T23:56:42.838Z,102486.81
2023-04-03T23:59:09.128Z,102492.91
